CYED

Edmonton (CFB Namao) Heliport

Edmonton, Alberta, Canada
METAR CYED 200900Z AUTO 20005KT 9SM CLR 17/09 A3004 RMK SLP170
Observed Flight Rules
Jun-20 @ 09:00 UTC (13 minutes ago) Visual Flight Rules
Wind Visibility Clouds
200° at 5 knots 9 miles
  • Clear skies
Temperatures Readings
Current 17°C / 63°F
Dewpoint 9°C / 48°F
Humidity 59%
Altimeter 30.04" Hg
Pressure 1017 hPa
Elevation 688
METAR CYED 200900Z AUTO 20005KT 9SM CLR 17/09 A3004 RMK SLP170
Observed Flight Rules
Jun-20 @ 09:00 UTC
(13 minutes ago)
VFR
Wind Visibility
200° at 5 knots 9 miles
Clouds
  • Clear skies
Temperature Dewpoint
17°C / 63°F 9°C / 48°F
Humidity Altimeter Pressure
59% 30.04" Hg 1017 hPa